Terminal Aerodrome Forecast
Issued by NWS

Home | Current Version | Previous Version | Text Only | Print | Product List | Glossary Off
Versions: 1 2 3 4 5 6 7 8 9 10 11 12 13 14 15 16 17 18

000
FTUS43 KBIS 291300 AAA
TAFJMS
TAF AMD
KJMS 291311Z 2913/3012 03007KT 5SM BR OVC006
     FM291600 07011KT P6SM SCT006 BKN015
     FM292100 11011KT P6SM SCT015 BKN025 OVC035=

USA.gov is the U.S. government's official web portal to all federal, state and local government web resources and services.